Time;durP1;ratioP1;P1;durP2;ratioP2;P2;SDS_P1;SDS_P2;PMS_P1;PMS_P2;Temp;Humidity;BMP_temperature;BMP_pressure;BME280_temperature;BME280_humidity;BME280_pressure;Samples;Min_cycle;Max_cycle;Signal;HPM_P1;HPM_P2
2023/02/02 00:01:08;;;;;;;9.32;2.88;;;7.30;99.90;;;;;;5033508;28;20041;-84
2023/02/02 00:03:34;;;;;;;12.20;2.40;;;7.30;99.90;;;;;;5032078;28;20040;-84
2023/02/02 00:06:00;;;;;;;11.77;2.80;;;7.30;99.90;;;;;;5016236;28;20025;-85
2023/02/02 00:08:25;;;;;;;9.73;2.63;;;7.30;99.90;;;;;;5032434;28;20586;-84
2023/02/02 00:10:51;;;;;;;13.13;3.35;;;7.30;99.90;;;;;;5032310;28;20047;-84
2023/02/02 00:13:17;;;;;;;12.07;2.90;;;7.30;99.90;;;;;;5032481;28;20026;-85
2023/02/02 00:15:44;;;;;;;13.38;3.10;;;7.30;99.90;;;;;;5033039;28;20085;-85
2023/02/02 00:18:10;;;;;;;16.63;3.35;;;7.30;99.90;;;;;;5030122;28;20021;-86
2023/02/02 00:20:36;;;;;;;12.98;4.05;;;7.30;99.90;;;;;;5034621;28;20025;-86
2023/02/02 00:23:03;;;;;;;13.68;3.17;;;7.30;99.90;;;;;;5038767;28;20028;-84
2023/02/02 00:25:28;;;;;;;18.10;3.60;;;7.30;99.90;;;;;;5052494;28;20019;-84
2023/02/02 00:27:54;;;;;;;12.13;3.33;;;7.40;99.90;;;;;;5048469;28;20022;-83
2023/02/02 00:30:23;;;;;;;12.68;3.17;;;7.40;99.90;;;;;;5043066;28;20057;-86
2023/02/02 00:32:51;;;;;;;18.15;3.45;;;7.40;99.90;;;;;;5031930;28;20456;-85
2023/02/02 00:35:17;;;;;;;13.80;3.10;;;7.40;99.90;;;;;;5033886;28;20482;-85
2023/02/02 00:37:43;;;;;;;18.05;3.28;;;7.40;99.90;;;;;;5032677;28;20018;-87
2023/02/02 00:40:09;;;;;;;12.13;2.95;;;7.40;99.90;;;;;;5032505;28;20395;-85
2023/02/02 00:42:35;;;;;;;13.15;3.15;;;7.40;99.90;;;;;;5031438;28;20110;-86
2023/02/02 00:45:16;;;;;;;18.30;3.00;;;7.40;99.90;;;;;;5031171;28;20080;-84
2023/02/02 00:47:47;;;;;;;16.17;3.05;;;7.40;99.90;;;;;;5030897;28;20048;-86
2023/02/02 00:50:20;;;;;;;15.30;3.08;;;7.40;99.90;;;;;;5032053;28;20430;-85
2023/02/02 00:52:47;;;;;;;11.45;3.05;;;7.40;99.90;;;;;;5031414;28;20467;-85
2023/02/02 00:55:17;;;;;;;14.82;3.95;;;7.30;99.90;;;;;;5063786;28;20022;-86
2023/02/02 00:57:43;;;;;;;17.58;3.47;;;7.40;99.90;;;;;;5031197;28;20411;-88
2023/02/02 01:00:12;;;;;;;19.55;3.40;;;7.40;99.90;;;;;;5031666;28;20029;-87
2023/02/02 01:02:38;;;;;;;12.85;3.33;;;7.40;99.90;;;;;;5030701;28;20063;-86
2023/02/02 01:05:04;;;;;;;13.45;2.80;;;7.50;99.90;;;;;;5030139;28;20025;-87
2023/02/02 01:07:30;;;;;;;15.30;3.88;;;7.50;99.90;;;;;;5030301;28;20028;-84
2023/02/02 01:09:55;;;;;;;14.95;3.00;;;7.50;99.90;;;;;;5031720;28;20022;-85
2023/02/02 01:12:21;;;;;;;14.10;3.10;;;7.50;99.90;;;;;;5031831;28;20407;-87
2023/02/02 01:14:47;;;;;;;13.75;2.47;;;7.40;99.90;;;;;;5030592;28;20032;-86
2023/02/02 01:17:13;;;;;;;12.20;2.70;;;7.40;99.90;;;;;;5030910;28;20021;-85
2023/02/02 01:19:39;;;;;;;9.93;2.28;;;7.40;99.90;;;;;;5030144;28;20534;-85
2023/02/02 01:22:05;;;;;;;10.48;2.13;;;7.40;99.90;;;;;;5030402;28;20049;-86
2023/02/02 01:24:31;;;;;;;9.27;2.40;;;7.40;99.90;;;;;;5030168;28;20503;-87
2023/02/02 01:26:56;;;;;;;13.30;3.97;;;7.40;99.90;;;;;;5030541;28;20033;-87
2023/02/02 01:29:22;;;;;;;13.45;2.58;;;7.30;99.90;;;;;;5030742;28;20063;-87
2023/02/02 01:31:48;;;;;;;10.63;2.17;;;7.30;99.90;;;;;;5064339;28;20128;-88
2023/02/02 01:34:14;;;;;;;8.40;2.30;;;7.30;99.90;;;;;;5033095;28;20025;-86
2023/02/02 01:36:39;;;;;;;10.05;2.70;;;7.30;99.90;;;;;;5066995;28;20018;-87
2023/02/02 01:39:05;;;;;;;8.63;2.65;;;7.20;99.90;;;;;;5070841;28;20376;-88
2023/02/02 01:41:32;;;;;;;14.15;2.88;;;7.20;99.90;;;;;;5068544;28;20050;-87
2023/02/02 01:44:00;;;;;;;9.90;1.98;;;7.20;99.90;;;;;;5036508;28;20096;-86
2023/02/02 01:46:31;;;;;;;9.40;2.70;;;7.20;99.90;;;;;;5036703;28;20391;-86
2023/02/02 01:49:13;;;;;;;15.50;3.78;;;7.20;99.90;;;;;;5034877;28;20083;-86
2023/02/02 01:51:52;;;;;;;13.52;3.17;;;7.10;99.90;;;;;;5034996;28;20036;-85
2023/02/02 01:54:23;;;;;;;11.70;3.22;;;7.10;99.90;;;;;;5036877;28;20048;-88
2023/02/02 01:56:55;;;;;;;12.90;3.28;;;7.10;99.90;;;;;;5035126;28;20459;-85
2023/02/02 01:59:24;;;;;;;13.15;3.03;;;7.20;99.90;;;;;;5034966;28;20080;-87
2023/02/02 02:01:51;;;;;;;10.98;2.15;;;7.10;99.90;;;;;;5034744;28;20033;-87
2023/02/02 02:04:17;;;;;;;13.70;3.60;;;7.10;99.90;;;;;;5036065;28;20128;-86
2023/02/02 02:06:44;;;;;;;7.45;2.25;;;7.10;99.90;;;;;;5034562;28;20033;-86
2023/02/02 02:09:09;;;;;;;10.63;2.63;;;7.10;99.90;;;;;;5034551;28;20399;-86
2023/02/02 02:11:36;;;;;;;14.65;3.17;;;7.00;99.90;;;;;;5033924;28;20076;-86
2023/02/02 02:17:19;;;;;;;7.22;1.63;;;7.00;99.90;;;;;;5036235;28;20044;-86
2023/02/02 02:26:42;;;;;;;9.43;1.92;;;6.80;99.90;;;;;;5035791;28;20228;-87
2023/02/02 02:29:10;;;;;;;6.55;1.48;;;6.80;99.90;;;;;;5034486;28;20152;-87
2023/02/02 02:32:21;;;;;;;7.25;1.80;;;6.80;99.90;;;;;;5034553;28;20017;-87
2023/02/02 02:34:46;;;;;;;11.45;2.33;;;6.80;99.90;;;;;;5029278;28;20029;-87
2023/02/02 02:37:30;;;;;;;13.65;1.83;;;6.80;99.90;;;;;;5034705;28;20371;-86
2023/02/02 02:40:25;;;;;;;5.32;1.50;;;6.80;99.90;;;;;;5034366;28;20026;-86
2023/02/02 02:42:55;;;;;;;5.30;1.20;;;6.80;99.90;;;;;;5034658;28;20157;-87
2023/02/02 02:45:23;;;;;;;4.55;1.30;;;6.80;99.90;;;;;;5034448;28;20029;-86
2023/02/02 02:47:50;;;;;;;6.32;1.70;;;6.80;99.90;;;;;;5033815;28;20128;-86
2023/02/02 02:50:16;;;;;;;4.88;1.10;;;6.80;99.90;;;;;;5033691;28;20587;-86
2023/02/02 02:52:41;;;;;;;8.05;2.40;;;6.80;99.90;;;;;;5033827;28;20026;-86
2023/02/02 02:55:09;;;;;;;9.50;2.10;;;6.80;99.90;;;;;;5033730;28;20145;-87
2023/02/02 02:57:50;;;;;;;9.25;2.22;;;6.80;99.90;;;;;;5033962;28;20036;-87
2023/02/02 03:00:34;;;;;;;7.32;2.35;;;6.80;99.90;;;;;;5034171;28;20029;-86
2023/02/02 03:03:30;;;;;;;9.05;2.25;;;6.80;99.90;;;;;;5034811;28;20424;-86
2023/02/02 03:06:35;;;;;;;11.00;2.60;;;6.80;99.90;;;;;;5034912;28;20033;-86
2023/02/02 03:09:06;;;;;;;9.82;2.85;;;6.70;99.90;;;;;;5034271;28;20483;-85
2023/02/02 03:11:34;;;;;;;8.55;2.40;;;6.80;99.90;;;;;;5034771;28;20026;-87
2023/02/02 03:14:01;;;;;;;9.50;2.55;;;6.70;99.90;;;;;;5033509;28;20031;-86
2023/02/02 03:16:26;;;;;;;12.00;2.80;;;6.70;99.90;;;;;;5033432;28;20185;-87
2023/02/02 03:18:54;;;;;;;6.93;2.40;;;6.70;99.90;;;;;;5034855;28;20057;-86
2023/02/02 03:21:20;;;;;;;12.77;2.58;;;6.70;99.90;;;;;;5034605;28;20059;-85
2023/02/02 03:23:45;;;;;;;5.90;2.25;;;6.70;99.90;;;;;;5033445;28;20538;-86
2023/02/02 03:26:12;;;;;;;6.78;2.15;;;6.70;99.90;;;;;;5033299;28;20083;-86
2023/02/02 03:28:38;;;;;;;8.90;2.28;;;6.70;99.90;;;;;;5033202;28;20048;-87
2023/02/02 03:31:04;;;;;;;8.98;2.20;;;6.60;99.90;;;;;;5033366;28;20080;-88
2023/02/02 03:33:32;;;;;;;11.45;2.72;;;6.70;99.90;;;;;;5034424;28;20101;-86
2023/02/02 03:35:58;;;;;;;8.73;2.83;;;6.70;99.90;;;;;;5033335;28;20356;-86
2023/02/02 03:38:23;;;;;;;10.52;2.67;;;6.70;99.90;;;;;;5034679;28;20104;-87
2023/02/02 03:40:50;;;;;;;9.95;2.33;;;6.70;99.90;;;;;;5034181;28;20484;-87
2023/02/02 03:43:20;;;;;;;7.72;2.60;;;6.70;99.90;;;;;;5033336;28;20024;-87
2023/02/02 03:45:46;;;;;;;10.35;3.75;;;6.70;99.90;;;;;;5033135;28;20029;-87
2023/02/02 03:48:11;;;;;;;13.02;2.88;;;6.70;99.90;;;;;;5033220;28;20045;-87
2023/02/02 03:50:37;;;;;;;12.25;3.30;;;6.80;99.90;;;;;;5033243;28;20104;-86
2023/02/02 03:53:03;;;;;;;9.88;2.83;;;6.80;99.90;;;;;;5033425;28;20028;-87
2023/02/02 03:55:29;;;;;;;9.98;3.00;;;6.80;99.90;;;;;;5033126;28;20451;-87
2023/02/02 03:57:55;;;;;;;12.43;3.90;;;6.80;99.90;;;;;;5034180;28;20049;-85
2023/02/02 04:00:20;;;;;;;12.02;3.20;;;6.80;99.90;;;;;;5032276;28;20044;-86
2023/02/02 04:02:46;;;;;;;17.65;4.90;;;6.80;99.90;;;;;;5033956;28;20029;-86
2023/02/02 04:05:11;;;;;;;16.67;4.13;;;6.90;99.90;;;;;;5032516;28;20036;-86
2023/02/02 04:07:37;;;;;;;14.50;3.58;;;6.90;99.90;;;;;;5032263;28;20014;-85
2023/02/02 04:10:04;;;;;;;15.85;3.10;;;7.00;99.90;;;;;;5032780;28;20089;-86
2023/02/02 04:12:29;;;;;;;14.68;4.28;;;7.00;99.90;;;;;;5032604;28;20133;-86
2023/02/02 04:14:55;;;;;;;15.57;3.80;;;7.00;99.90;;;;;;5033221;28;20029;-86
2023/02/02 04:17:20;;;;;;;16.25;4.15;;;7.10;99.90;;;;;;5033845;28;20025;-86
2023/02/02 04:19:46;;;;;;;16.20;4.22;;;7.10;99.90;;;;;;5032781;28;20112;-86
2023/02/02 04:22:11;;;;;;;20.42;4.47;;;7.20;99.90;;;;;;5032858;28;20099;-86
2023/02/02 04:24:37;;;;;;;16.98;3.38;;;7.20;99.90;;;;;;5032786;28;20574;-86
2023/02/02 04:27:03;;;;;;;9.48;3.10;;;7.20;99.90;;;;;;5032773;28;20112;-88
2023/02/02 04:29:30;;;;;;;18.63;3.78;;;7.20;99.90;;;;;;5032699;28;20075;-88
2023/02/02 04:31:56;;;;;;;21.10;4.50;;;7.20;99.90;;;;;;5032893;28;20433;-87
2023/02/02 04:34:22;;;;;;;13.93;3.90;;;7.20;99.90;;;;;;5032644;28;20025;-88
2023/02/02 04:36:47;;;;;;;13.82;3.50;;;7.20;99.90;;;;;;5034126;28;20026;-88
2023/02/02 04:39:13;;;;;;;12.50;3.15;;;7.30;99.90;;;;;;5034234;28;20033;-88
2023/02/02 04:41:39;;;;;;;16.95;3.88;;;7.30;99.90;;;;;;5032631;28;20088;-87
2023/02/02 04:44:13;;;;;;;14.75;3.70;;;7.30;99.90;;;;;;5032870;28;20034;-88
2023/02/02 04:46:38;;;;;;;13.77;3.67;;;7.30;99.90;;;;;;5033614;28;20364;-87
2023/02/02 04:49:04;;;;;;;16.95;3.28;;;7.30;99.90;;;;;;5034481;28;20064;-87
2023/02/02 04:51:29;;;;;;;13.23;3.42;;;7.30;99.90;;;;;;5033309;28;20530;-87
2023/02/02 04:53:55;;;;;;;12.65;3.70;;;7.30;99.90;;;;;;5048993;28;20017;-86
2023/02/02 04:56:21;;;;;;;14.52;3.70;;;7.30;99.90;;;;;;5054593;28;20037;-86
2023/02/02 04:58:46;;;;;;;11.27;3.17;;;7.30;99.90;;;;;;5054451;28;20028;-87
2023/02/02 05:01:16;;;;;;;16.10;3.35;;;7.30;99.90;;;;;;5041311;28;20033;-88
2023/02/02 05:03:42;;;;;;;13.60;3.55;;;7.30;99.90;;;;;;5035420;28;20018;-87
2023/02/02 05:06:08;;;;;;;16.08;2.85;;;7.40;99.90;;;;;;5036751;28;20028;-87
2023/02/02 05:08:34;;;;;;;9.50;3.13;;;7.50;99.90;;;;;;5033891;28;20036;-86
2023/02/02 05:11:04;;;;;;;13.00;3.20;;;7.40;99.90;;;;;;5031924;28;20022;-87
2023/02/02 05:13:30;;;;;;;13.57;3.95;;;7.40;99.90;;;;;;5032009;28;20033;-85
2023/02/02 05:15:55;;;;;;;20.65;4.57;;;7.50;99.90;;;;;;5031702;28;20030;-88
2023/02/02 05:18:21;;;;;;;14.45;3.35;;;7.50;99.90;;;;;;5015268;28;20116;-86
2023/02/02 05:20:47;;;;;;;19.15;4.10;;;7.50;99.90;;;;;;5032739;28;20057;-87
2023/02/02 05:23:12;;;;;;;14.45;3.30;;;7.50;99.90;;;;;;5031767;28;20014;-87
2023/02/02 05:25:38;;;;;;;17.77;3.22;;;7.50;99.90;;;;;;5031485;28;20025;-87
2023/02/02 05:28:04;;;;;;;20.48;3.67;;;7.50;99.90;;;;;;5031602;28;20036;-88
2023/02/02 05:30:29;;;;;;;12.52;3.10;;;7.50;99.90;;;;;;5031804;28;20029;-87
2023/02/02 05:32:55;;;;;;;17.13;3.50;;;7.60;99.90;;;;;;5031708;28;20079;-86
2023/02/02 05:35:20;;;;;;;16.00;3.97;;;7.50;99.90;;;;;;5032165;28;20036;-87
2023/02/02 05:37:48;;;;;;;13.85;3.25;;;7.50;99.90;;;;;;5031608;28;20017;-88
2023/02/02 05:40:14;;;;;;;13.30;2.70;;;7.50;99.90;;;;;;5033606;28;20037;-88
2023/02/02 05:42:39;;;;;;;18.23;4.22;;;7.50;99.90;;;;;;5031735;28;20025;-88
2023/02/02 05:45:05;;;;;;;17.15;3.95;;;7.50;99.90;;;;;;5031467;28;20396;-89
2023/02/02 05:47:31;;;;;;;15.02;4.00;;;7.50;99.90;;;;;;5031208;28;20115;-87
2023/02/02 05:49:56;;;;;;;12.57;2.85;;;7.50;99.90;;;;;;5031223;28;20034;-87
2023/02/02 05:52:24;;;;;;;15.05;3.70;;;7.60;99.90;;;;;;5032078;28;20095;-86
2023/02/02 05:54:49;;;;;;;11.88;3.40;;;7.60;99.90;;;;;;5031020;28;20030;-86
2023/02/02 05:57:15;;;;;;;11.88;3.25;;;7.60;99.90;;;;;;5030945;28;20063;-85
2023/02/02 05:59:40;;;;;;;10.48;3.05;;;7.60;99.90;;;;;;5031229;28;20433;-87
2023/02/02 06:02:06;;;;;;;13.88;3.55;;;7.60;99.90;;;;;;5031197;28;20114;-86
2023/02/02 06:04:32;;;;;;;14.30;3.38;;;7.60;99.90;;;;;;5030932;28;20060;-87
2023/02/02 06:06:57;;;;;;;12.52;3.15;;;7.60;99.90;;;;;;5030653;28;20025;-86
2023/02/02 06:09:25;;;;;;;11.13;3.15;;;7.60;99.90;;;;;;5031334;28;20104;-86
2023/02/02 06:11:54;;;;;;;16.75;3.47;;;7.60;99.90;;;;;;5030720;28;20025;-87
2023/02/02 06:14:19;;;;;;;13.52;3.90;;;7.60;99.90;;;;;;5030441;28;20067;-87
2023/02/02 06:16:45;;;;;;;15.98;4.30;;;7.60;99.90;;;;;;5030336;28;20033;-86
2023/02/02 06:19:10;;;;;;;14.02;4.00;;;7.60;99.90;;;;;;5030360;28;20034;-86
2023/02/02 06:21:36;;;;;;;18.75;4.43;;;7.60;99.90;;;;;;5032028;28;20037;-87
2023/02/02 06:24:02;;;;;;;11.23;3.35;;;7.60;99.90;;;;;;5034676;28;20415;-88
2023/02/02 06:26:30;;;;;;;10.52;2.60;;;7.60;99.90;;;;;;5035141;28;20021;-88
2023/02/02 06:28:56;;;;;;;9.95;2.53;;;7.50;99.90;;;;;;5035146;28;20495;-88
2023/02/02 06:31:22;;;;;;;11.38;3.25;;;7.50;99.90;;;;;;5035085;28;20029;-88
2023/02/02 06:33:53;;;;;;;17.00;3.42;;;7.50;99.90;;;;;;5035094;28;20021;-87
2023/02/02 06:36:19;;;;;;;9.82;3.30;;;7.50;99.90;;;;;;5036018;28;20035;-87
2023/02/02 06:38:49;;;;;;;14.57;3.60;;;7.50;99.90;;;;;;5035916;28;20017;-88
2023/02/02 06:41:14;;;;;;;10.02;3.05;;;7.50;99.90;;;;;;5035931;28;20029;-88
2023/02/02 06:43:40;;;;;;;12.05;3.40;;;7.50;99.90;;;;;;5032246;28;20108;-87
2023/02/02 06:46:05;;;;;;;11.70;3.33;;;7.50;99.90;;;;;;5033986;28;20029;-86
2023/02/02 06:48:31;;;;;;;12.20;3.15;;;7.50;99.90;;;;;;5048560;28;20195;-85
2023/02/02 06:50:59;;;;;;;10.90;3.78;;;7.50;99.90;;;;;;5031623;28;20079;-86
2023/02/02 06:53:30;;;;;;;10.18;2.70;;;7.50;99.90;;;;;;5032718;28;20038;-86
2023/02/02 06:55:57;;;;;;;7.72;2.50;;;7.50;99.90;;;;;;5032904;28;20025;-87
2023/02/02 06:58:23;;;;;;;12.68;4.00;;;7.40;99.90;;;;;;5033118;28;20014;-89
2023/02/02 07:00:48;;;;;;;11.57;3.15;;;7.40;99.90;;;;;;5032118;28;20021;-87
2023/02/02 07:03:19;;;;;;;10.90;2.72;;;7.40;99.90;;;;;;5032795;28;20669;-85
2023/02/02 07:05:45;;;;;;;9.85;2.90;;;7.40;99.90;;;;;;5031596;28;20025;-85
2023/02/02 07:08:10;;;;;;;11.02;3.20;;;7.40;99.90;;;;;;5031180;28;20141;-85
2023/02/02 07:10:37;;;;;;;12.88;3.33;;;7.40;99.90;;;;;;5032146;28;20017;-87
2023/02/02 07:13:05;;;;;;;9.75;3.70;;;7.40;99.90;;;;;;5031548;28;20120;-86
2023/02/02 07:15:32;;;;;;;11.43;3.65;;;7.40;99.90;;;;;;5029981;28;20449;-87
2023/02/02 07:17:58;;;;;;;13.13;3.30;;;7.40;99.90;;;;;;5034214;28;20018;-86
2023/02/02 07:20:24;;;;;;;10.15;3.25;;;7.40;99.90;;;;;;5033491;28;20046;-87
2023/02/02 07:22:49;;;;;;;10.55;3.33;;;7.40;99.90;;;;;;5029909;28;20546;-85
2023/02/02 07:25:15;;;;;;;10.55;3.30;;;7.40;99.90;;;;;;5028714;28;20489;-85
2023/02/02 07:27:41;;;;;;;11.98;3.42;;;7.40;99.90;;;;;;5031485;28;20052;-86
2023/02/02 07:30:07;;;;;;;14.15;3.63;;;7.30;99.90;;;;;;5033580;28;20486;-86
2023/02/02 07:32:33;;;;;;;15.27;3.35;;;7.30;99.90;;;;;;5034478;28;20028;-87
2023/02/02 07:34:58;;;;;;;15.38;3.97;;;7.30;99.90;;;;;;5032579;28;20022;-88
2023/02/02 07:37:24;;;;;;;14.90;3.45;;;7.30;99.90;;;;;;5031856;28;20049;-87
2023/02/02 07:39:49;;;;;;;12.13;3.30;;;7.30;99.90;;;;;;5029839;28;20016;-85
2023/02/02 07:42:15;;;;;;;12.30;3.47;;;7.30;99.90;;;;;;5030475;28;20056;-86
2023/02/02 07:44:40;;;;;;;12.15;3.50;;;7.30;99.90;;;;;;5032554;28;20033;-83
2023/02/02 07:47:06;;;;;;;11.05;3.20;;;7.30;99.90;;;;;;5031625;28;20119;-87
2023/02/02 07:49:32;;;;;;;11.32;2.85;;;7.30;99.90;;;;;;5032297;28;20041;-86
2023/02/02 07:51:57;;;;;;;13.57;3.25;;;7.30;99.90;;;;;;5029465;28;20028;-86
2023/02/02 07:54:23;;;;;;;22.35;4.07;;;7.30;99.90;;;;;;5033052;28;20048;-86
2023/02/02 07:56:48;;;;;;;15.95;4.47;;;7.40;99.90;;;;;;5031802;28;20052;-86
2023/02/02 07:59:14;;;;;;;13.50;3.55;;;7.40;99.90;;;;;;5034166;28;20060;-87
2023/02/02 08:01:39;;;;;;;12.45;3.30;;;7.40;99.90;;;;;;5033780;28;20124;-83
2023/02/02 08:04:05;;;;;;;14.57;3.72;;;7.30;99.90;;;;;;5032116;28;20037;-85
2023/02/02 08:06:37;;;;;;;10.52;4.30;;;7.40;99.90;;;;;;5032366;28;20459;-84
2023/02/02 08:09:06;;;;;;;10.70;3.33;;;7.30;99.90;;;;;;5032260;28;20021;-89
2023/02/02 08:11:32;;;;;;;12.45;4.05;;;7.40;99.90;;;;;;5031786;28;20025;-85
2023/02/02 08:13:59;;;;;;;14.90;4.22;;;7.40;99.90;;;;;;5031834;28;20052;-84
2023/02/02 08:16:26;;;;;;;16.52;4.63;;;7.40;99.90;;;;;;5031488;28;20124;-83
2023/02/02 08:18:52;;;;;;;11.85;4.57;;;7.40;99.90;;;;;;5031177;28;20091;-83
2023/02/02 08:21:19;;;;;;;11.70;3.72;;;7.40;99.90;;;;;;5031757;28;20045;-86
2023/02/02 08:23:45;;;;;;;14.93;4.00;;;7.40;99.90;;;;;;5031593;28;20391;-85
2023/02/02 08:26:17;;;;;;;15.23;4.07;;;7.40;99.90;;;;;;5031390;28;20017;-85
2023/02/02 08:28:44;;;;;;;8.80;3.83;;;7.40;99.90;;;;;;5031706;28;20014;-88
2023/02/02 08:31:21;;;;;;;13.43;5.03;;;7.40;99.90;;;;;;5032230;28;20017;-86
2023/02/02 08:33:50;;;;;;;15.63;4.53;;;7.50;99.90;;;;;;5028047;28;20022;-84
2023/02/02 08:36:17;;;;;;;21.25;4.75;;;7.50;99.90;;;;;;5015627;28;20028;-85
2023/02/02 08:38:43;;;;;;;18.65;3.90;;;7.50;99.90;;;;;;5033047;28;20531;-85
2023/02/02 08:41:11;;;;;;;16.52;4.57;;;7.50;99.90;;;;;;5029120;28;20055;-86
2023/02/02 08:43:38;;;;;;;18.83;4.38;;;7.60;99.90;;;;;;5033290;28;20079;-86
2023/02/02 08:46:04;;;;;;;16.10;3.83;;;7.60;99.90;;;;;;5028139;28;20486;-86
2023/02/02 08:48:30;;;;;;;16.95;4.80;;;7.60;99.90;;;;;;5031820;28;20080;-86
2023/02/02 08:50:57;;;;;;;14.45;4.50;;;7.70;99.90;;;;;;5027025;28;20029;-83
2023/02/02 08:53:26;;;;;;;13.45;4.60;;;7.70;99.90;;;;;;5032045;28;20067;-88
2023/02/02 08:56:08;;;;;;;17.40;4.75;;;7.70;99.90;;;;;;5032331;28;20033;-85
2023/02/02 08:58:34;;;;;;;11.93;4.50;;;7.70;99.90;;;;;;5028056;28;20029;-84
2023/02/02 09:01:05;;;;;;;14.73;4.03;;;7.70;99.90;;;;;;5029380;28;20047;-86
2023/02/02 09:03:33;;;;;;;10.48;3.25;;;7.70;99.90;;;;;;5033344;28;20071;-84
2023/02/02 09:06:14;;;;;;;9.52;3.78;;;7.70;99.90;;;;;;5038327;28;20044;-85
2023/02/02 09:08:40;;;;;;;11.20;3.85;;;7.80;99.90;;;;;;5052145;28;20037;-83
2023/02/02 09:11:15;;;;;;;19.48;4.00;;;7.80;99.90;;;;;;5053012;28;20045;-86
2023/02/02 09:13:46;;;;;;;13.40;4.78;;;7.80;99.90;;;;;;5042563;28;20049;-82
2023/02/02 09:16:13;;;;;;;17.80;5.07;;;7.90;99.90;;;;;;5035357;28;20483;-87
2023/02/02 09:18:40;;;;;;;15.00;3.95;;;7.90;99.90;;;;;;5032074;28;20029;-85
2023/02/02 09:21:09;;;;;;;14.90;4.00;;;8.00;99.90;;;;;;5031831;28;20064;-85
2023/02/02 09:23:37;;;;;;;18.38;5.53;;;8.00;99.90;;;;;;5031866;28;20025;-85
2023/02/02 09:26:14;;;;;;;11.52;4.10;;;8.10;99.90;;;;;;5032456;28;20624;-85
2023/02/02 09:28:41;;;;;;;15.52;4.30;;;8.10;99.90;;;;;;5031026;28;20022;-83
2023/02/02 09:31:08;;;;;;;13.75;4.18;;;8.10;99.90;;;;;;5029878;28;20372;-86
2023/02/02 09:33:34;;;;;;;20.00;4.75;;;8.20;99.90;;;;;;5030763;28;20022;-86
2023/02/02 09:36:14;;;;;;;13.90;4.65;;;8.20;99.90;;;;;;5032163;28;20026;-87
2023/02/02 09:38:41;;;;;;;16.83;4.88;;;8.20;99.90;;;;;;5026462;28;20502;-84
2023/02/02 09:41:28;;;;;;;15.35;3.80;;;8.20;99.90;;;;;;5031465;28;20041;-88
2023/02/02 09:44:19;;;;;;;16.83;4.00;;;8.20;99.90;;;;;;5032600;28;20033;-87
2023/02/02 09:47:23;;;;;;;21.92;4.47;;;8.30;99.90;;;;;;5031077;28;20395;-86
2023/02/02 09:50:00;;;;;;;14.65;3.80;;;8.30;99.90;;;;;;5032159;28;20046;-87
2023/02/02 09:52:42;;;;;;;18.33;3.47;;;8.30;99.90;;;;;;5031715;28;20051;-84
2023/02/02 09:55:18;;;;;;;15.50;4.40;;;8.30;99.90;;;;;;5030950;28;20017;-86
2023/02/02 09:57:52;;;;;;;15.18;4.93;;;8.30;99.90;;;;;;5032779;28;20037;-86
2023/02/02 10:00:26;;;;;;;18.08;4.55;;;8.30;99.90;;;;;;5035740;28;20013;-86
2023/02/02 10:02:58;;;;;;;14.65;3.58;;;8.30;99.90;;;;;;5035800;28;20124;-83
2023/02/02 10:05:28;;;;;;;18.23;3.83;;;8.30;99.90;;;;;;5035141;28;20022;-82
2023/02/02 10:08:00;;;;;;;16.10;3.78;;;8.40;99.90;;;;;;5034823;28;20075;-84
2023/02/02 10:10:32;;;;;;;17.85;4.22;;;8.40;99.90;;;;;;5035014;28;20029;-82
2023/02/02 10:13:25;;;;;;;17.70;3.67;;;8.40;99.90;;;;;;5034530;28;20057;-85
2023/02/02 10:16:04;;;;;;;11.65;2.88;;;8.40;99.90;;;;;;5034640;28;20502;-85
2023/02/02 10:18:43;;;;;;;9.45;3.05;;;8.40;99.90;;;;;;5034923;28;20017;-84
2023/02/02 10:21:27;;;;;;;13.20;3.58;;;8.50;99.90;;;;;;5034707;28;20499;-86
2023/02/02 10:23:53;;;;;;;11.57;3.08;;;8.50;99.90;;;;;;5034517;28;20080;-87
2023/02/02 10:26:22;;;;;;;17.05;3.35;;;8.50;99.90;;;;;;5034066;28;20017;-85
2023/02/02 10:29:17;;;;;;;12.07;3.15;;;8.50;99.90;;;;;;5034059;28;20067;-86
2023/02/02 10:32:07;;;;;;;15.40;3.17;;;8.50;99.90;;;;;;5035654;28;20049;-88
2023/02/02 10:34:43;;;;;;;11.10;3.60;;;8.50;99.90;;;;;;5036462;28;20025;-86
2023/02/02 10:37:50;;;;;;;11.98;2.75;;;8.50;99.90;;;;;;5038326;28;20029;-89
2023/02/02 10:40:35;;;;;;;12.07;3.08;;;8.50;99.90;;;;;;5035352;28;20036;-87
2023/02/02 10:43:44;;;;;;;11.52;3.40;;;8.50;99.90;;;;;;5034720;28;20018;-85
2023/02/02 10:46:16;;;;;;;11.93;3.03;;;8.50;99.90;;;;;;5035382;28;20029;-86
2023/02/02 10:48:48;;;;;;;12.13;3.00;;;8.50;99.90;;;;;;5034967;28;20044;-86
2023/02/02 10:51:26;;;;;;;12.25;3.20;;;8.50;99.90;;;;;;5034507;28;20033;-87
2023/02/02 10:53:54;;;;;;;12.57;3.55;;;8.60;99.90;;;;;;5033765;28;20618;-88
2023/02/02 10:56:45;;;;;;;14.77;3.42;;;8.60;99.90;;;;;;5035295;28;20021;-88
2023/02/02 10:59:18;;;;;;;9.57;2.88;;;8.60;99.90;;;;;;5033651;28;20029;-84
2023/02/02 11:01:47;;;;;;;9.70;2.70;;;8.60;99.90;;;;;;5032264;28;20133;-88
2023/02/02 11:06:57;;;;;;;10.43;2.50;;;8.60;99.90;;;;;;5033336;28;20037;-87
2023/02/02 11:09:30;;;;;;;10.35;3.20;;;8.60;99.90;;;;;;5031562;28;20017;-85
2023/02/02 11:12:31;;;;;;;10.50;2.85;;;8.60;99.90;;;;;;5032927;28;20025;-84
2023/02/02 11:15:30;;;;;;;9.35;2.95;;;8.60;99.90;;;;;;5031674;28;20029;-84
2023/02/02 11:18:13;;;;;;;8.32;2.60;;;8.60;99.90;;;;;;5034749;28;20030;-87
2023/02/02 11:20:39;;;;;;;14.60;3.20;;;8.60;99.90;;;;;;5069163;28;20083;-88
2023/02/02 11:23:06;;;;;;;14.57;3.40;;;8.60;99.90;;;;;;5035083;28;20431;-86
2023/02/02 11:25:39;;;;;;;13.50;3.70;;;8.50;99.90;;;;;;5033294;28;20049;-87
2023/02/02 11:28:29;;;;;;;12.82;3.13;;;8.50;99.90;;;;;;5035173;28;20364;-87
2023/02/02 11:30:55;;;;;;;9.95;2.67;;;8.50;99.90;;;;;;5034185;28;20028;-88
2023/02/02 11:33:33;;;;;;;15.18;3.92;;;8.50;99.90;;;;;;5033738;28;20116;-85
2023/02/02 11:36:02;;;;;;;9.98;2.97;;;8.50;99.90;;;;;;5034340;28;20021;-86
2023/02/02 11:38:28;;;;;;;12.02;3.78;;;8.40;99.90;;;;;;5032926;28;20398;-87
2023/02/02 11:41:04;;;;;;;14.57;3.60;;;8.40;99.90;;;;;;5032372;28;20484;-86
2023/02/02 11:43:47;;;;;;;11.50;3.22;;;8.40;99.90;;;;;;5029825;28;20027;-86
2023/02/02 11:46:21;;;;;;;;;;;8.50;99.90;;;;;;5030369;28;20014;-84
2023/02/02 11:49:14;;;;;;;10.30;2.53;;;8.40;99.90;;;;;;5016809;28;19924;-84
2023/02/02 11:51:41;;;;;;;12.80;3.45;;;8.50;99.90;;;;;;5032483;28;20430;-85
2023/02/02 11:54:22;;;;;;;13.07;3.22;;;8.40;99.90;;;;;;5032587;28;20025;-85
2023/02/02 11:56:52;;;;;;;12.70;3.33;;;8.50;99.90;;;;;;5013034;28;20084;-84
2023/02/02 11:59:37;;;;;;;10.70;3.08;;;8.50;99.90;;;;;;5023690;28;20431;-86
2023/02/02 12:02:18;;;;;;;11.68;2.63;;;8.50;99.90;;;;;;5032572;28;20048;-84
2023/02/02 12:04:50;;;;;;;9.82;3.28;;;8.60;99.90;;;;;;5032873;28;20025;-85
2023/02/02 12:07:32;;;;;;;12.65;3.22;;;8.60;99.90;;;;;;5059673;28;20364;-83
2023/02/02 12:10:12;;;;;;;10.60;2.40;;;8.60;99.90;;;;;;5033838;28;20028;-85
2023/02/02 12:12:41;;;;;;;11.15;2.70;;;8.60;99.90;;;;;;5018029;28;20025;-83
2023/02/02 12:15:09;;;;;;;10.65;2.90;;;8.60;99.90;;;;;;5034557;28;20018;-83
2023/02/02 12:17:44;;;;;;;8.45;3.13;;;8.60;99.90;;;;;;5035052;28;20034;-83
2023/02/02 12:20:25;;;;;;;9.73;3.38;;;8.60;99.90;;;;;;5033416;28;20471;-85
2023/02/02 12:23:16;;;;;;;8.82;2.83;;;8.60;99.90;;;;;;5030395;28;20044;-86
2023/02/02 12:26:02;;;;;;;12.23;2.70;;;8.60;99.90;;;;;;5031527;28;20028;-85
2023/02/02 12:28:57;;;;;;;9.95;2.58;;;8.60;99.90;;;;;;5031614;28;20033;-85
2023/02/02 12:31:55;;;;;;;11.73;2.95;;;8.60;99.90;;;;;;5031951;28;20029;-83
2023/02/02 12:34:58;;;;;;;12.23;2.67;;;8.60;99.90;;;;;;5028666;28;20029;-84
2023/02/02 12:37:49;;;;;;;12.70;2.17;;;8.60;99.90;;;;;;5026689;28;20021;-84
2023/02/02 12:40:59;;;;;;;8.52;2.97;;;8.50;99.90;;;;;;5030617;28;20108;-86
2023/02/02 12:43:41;;;;;;;7.20;1.95;;;8.40;99.90;;;;;;5032506;28;20037;-85
2023/02/02 12:46:11;;;;;;;12.07;2.40;;;8.40;99.90;;;;;;5032440;28;20104;-85
2023/02/02 12:49:08;;;;;;;13.35;3.05;;;8.30;99.90;;;;;;5031802;28;20052;-88
2023/02/02 12:51:45;;;;;;;9.32;2.03;;;8.30;99.90;;;;;;5034316;28;20061;-86
2023/02/02 12:54:49;;;;;;;11.35;2.30;;;8.20;99.90;;;;;;5033419;28;20052;-87
2023/02/02 12:57:49;;;;;;;13.88;2.60;;;8.30;99.90;;;;;;5023601;28;20116;-86
2023/02/02 13:00:44;;;;;;;9.43;1.83;;;8.30;99.90;;;;;;5026393;28;20087;-85
2023/02/02 13:03:10;;;;;;;9.57;2.00;;;8.30;99.90;;;;;;5031471;28;20383;-85
2023/02/02 13:05:45;;;;;;;10.27;2.33;;;8.30;99.90;;;;;;5032419;28;20021;-85
2023/02/02 13:08:17;;;;;;;8.23;2.20;;;8.20;99.90;;;;;;5031246;28;20075;-85
2023/02/02 13:10:48;;;;;;;9.18;1.83;;;8.20;99.90;;;;;;5039612;28;20025;-84
2023/02/02 13:13:25;;;;;;;11.68;2.70;;;8.10;99.90;;;;;;5046677;28;20025;-85
2023/02/02 13:15:57;;;;;;;13.57;2.53;;;8.10;99.90;;;;;;5065472;28;20073;-86
2023/02/02 13:18:27;;;;;;;9.43;2.08;;;8.00;99.90;;;;;;5026930;28;20360;-87
2023/02/02 13:21:09;;;;;;;10.07;2.67;;;8.00;99.90;;;;;;5032975;28;20040;-86
2023/02/02 13:23:44;;;;;;;9.98;2.30;;;8.00;99.90;;;;;;5034366;28;20037;-85